createdAt,value
2019-04-01T00:00:24.403Z,59.00
2019-04-01T00:03:28.801Z,59.00
2019-04-01T00:06:33.204Z,59.00
2019-04-01T00:09:37.584Z,59.00
2019-04-01T00:12:41.984Z,59.00
2019-04-01T00:15:46.387Z,59.00
2019-04-01T00:19:02.324Z,59.00
2019-04-01T00:21:55.170Z,59.00
2019-04-01T00:24:59.549Z,59.00
2019-04-01T00:28:03.946Z,59.00
2019-04-01T00:30:57.274Z,59.00
2019-04-01T00:34:01.653Z,59.00
2019-04-01T00:37:06.053Z,59.00
2019-04-01T00:40:10.432Z,59.00
2019-04-01T00:43:14.836Z,59.00
2019-04-01T00:46:19.244Z,59.00
2019-04-01T00:49:23.621Z,60.00
2019-04-01T00:52:28.032Z,59.00
2019-04-01T00:55:32.414Z,59.00
2019-04-01T00:58:36.815Z,60.00
2019-04-01T01:01:41.213Z,59.00
2019-04-01T01:04:45.593Z,60.00
2019-04-01T01:07:50.011Z,60.00
2019-04-01T01:10:43.344Z,60.00
2019-04-01T01:13:47.730Z,59.00
2019-04-01T01:16:52.135Z,60.00
2019-04-01T01:19:56.513Z,59.00
2019-04-01T01:23:00.915Z,60.00
2019-04-01T01:26:05.294Z,60.00
2019-04-01T01:29:09.705Z,61.00
2019-04-01T01:32:14.104Z,59.00
2019-04-01T01:35:18.502Z,60.00
2019-04-01T01:38:22.895Z,63.00
2019-04-01T01:41:16.206Z,59.00
2019-04-01T01:44:20.598Z,60.00
2019-04-01T01:47:24.996Z,59.00
2019-04-01T01:50:29.377Z,61.00
2019-04-01T01:53:33.777Z,60.00
2019-04-01T01:56:38.151Z,59.00
2019-04-01T01:59:42.545Z,60.00
2019-04-01T02:02:46.946Z,60.00
2019-04-01T02:05:51.340Z,60.00
2019-04-01T02:08:55.718Z,61.00
2019-04-01T02:12:00.110Z,59.00
2019-04-01T02:15:04.495Z,59.00
2019-04-01T02:18:08.898Z,60.00
2019-04-01T02:21:02.207Z,59.00
2019-04-01T02:24:06.609Z,59.00
2019-04-01T02:27:10.986Z,60.00
2019-04-01T02:30:15.387Z,60.00
2019-04-01T02:33:19.784Z,59.00
2019-04-01T02:36:24.157Z,60.00
2019-04-01T02:39:28.556Z,60.00
2019-04-01T02:42:32.930Z,59.00
2019-04-01T02:45:37.343Z,60.00
2019-04-01T02:48:41.745Z,64.00
2019-04-01T02:51:46.141Z,63.00
2019-04-01T02:54:50.546Z,62.00
2019-04-01T02:57:54.947Z,62.00
2019-04-01T03:00:48.287Z,62.00
2019-04-01T03:03:52.706Z,62.00
2019-04-01T03:06:57.095Z,62.00
2019-04-01T03:10:01.517Z,62.00
2019-04-01T03:13:05.891Z,62.00
2019-04-01T03:16:10.293Z,62.00
2019-04-01T03:19:14.701Z,62.00
2019-04-01T03:22:19.084Z,62.00
2019-04-01T03:25:23.491Z,62.00
2019-04-01T03:28:27.874Z,62.00
2019-04-01T03:31:32.558Z,62.00
2019-04-01T03:34:36.689Z,62.00
2019-04-01T03:37:41.071Z,62.00
2019-04-01T03:40:34.420Z,62.00
2019-04-01T03:43:38.795Z,63.00
2019-04-01T03:46:43.200Z,62.00
2019-04-01T03:49:47.605Z,62.00
2019-04-01T03:52:51.984Z,62.00
2019-04-01T03:55:56.392Z,62.00
2019-04-01T03:59:00.777Z,62.00
2019-04-01T04:02:05.184Z,64.00
2019-04-01T04:05:09.612Z,64.00
2019-04-01T04:08:13.999Z,63.00
2019-04-01T04:11:07.330Z,63.00
2019-04-01T04:14:11.707Z,63.00
2019-04-01T04:17:16.120Z,63.00
2019-04-01T04:20:20.517Z,63.00
2019-04-01T04:23:24.902Z,63.00
2019-04-01T04:26:29.300Z,64.00
2019-04-01T04:29:33.683Z,63.00
2019-04-01T04:32:38.082Z,63.00
2019-04-01T04:35:42.490Z,64.00
2019-04-01T04:38:46.872Z,63.00
2019-04-01T04:41:51.293Z,63.00
2019-04-01T04:44:55.680Z,64.00
2019-04-01T04:48:00.087Z,63.00
2019-04-01T04:50:53.417Z,63.00
2019-04-01T04:53:57.803Z,63.00
2019-04-01T04:57:02.199Z,63.00
2019-04-01T05:00:06.578Z,63.00
2019-04-01T05:03:10.990Z,63.00
2019-04-01T05:06:15.392Z,63.00
2019-04-01T05:09:19.771Z,62.00
2019-04-01T05:12:24.176Z,63.00
2019-04-01T05:15:28.560Z,62.00
2019-04-01T05:18:32.960Z,63.00
2019-04-01T05:21:37.359Z,62.00
2019-04-01T05:24:41.745Z,62.00
2019-04-01T05:27:46.147Z,62.00
2019-04-01T05:30:39.456Z,63.00
2019-04-01T05:33:54.755Z,63.00
2019-04-01T05:36:48.289Z,62.00
2019-04-01T05:39:53.683Z,62.00
2019-04-01T05:42:58.092Z,63.00
2019-04-01T05:46:02.472Z,62.00
2019-04-01T05:49:06.877Z,63.00
2019-04-01T05:52:11.281Z,62.00
2019-04-01T05:55:15.664Z,62.00
2019-04-01T05:58:20.068Z,62.00
2019-04-01T06:01:13.381Z,63.00
2019-04-01T06:04:17.791Z,63.00
2019-04-01T06:07:22.194Z,64.00
2019-04-01T06:10:27.594Z,62.00
2019-04-01T06:13:32.012Z,62.00
2019-04-01T06:16:36.417Z,61.00
2019-04-01T06:19:40.796Z,61.00
2019-04-01T06:22:45.197Z,61.00
2019-04-01T06:25:49.579Z,61.00
2019-04-01T06:28:53.976Z,60.00
2019-04-01T06:31:58.383Z,60.00
2019-04-01T06:35:02.764Z,60.00
2019-04-01T06:38:07.169Z,60.00
2019-04-01T06:41:00.483Z,60.00
2019-04-01T06:44:04.885Z,59.00
2019-04-01T06:47:09.305Z,61.00
2019-04-01T06:50:13.687Z,60.00
2019-04-01T06:53:18.102Z,59.00
2019-04-01T06:56:22.485Z,59.00
2019-04-01T06:59:26.903Z,60.00
2019-04-01T07:02:31.313Z,61.00
2019-04-01T07:05:35.702Z,63.00
2019-04-01T07:08:40.113Z,60.00
2019-04-01T07:11:44.642Z,60.00
2019-04-01T07:14:48.919Z,60.00
2019-04-01T07:17:53.333Z,63.00
2019-04-01T07:20:46.655Z,60.00
2019-04-01T07:23:51.072Z,60.00
2019-04-01T07:26:55.467Z,62.00
2019-04-01T07:29:59.887Z,60.00
2019-04-01T07:33:04.296Z,63.00
2019-04-01T07:36:08.715Z,60.00
2019-04-01T07:39:13.134Z,60.00
2019-04-01T07:42:17.536Z,66.00
2019-04-01T07:45:21.959Z,60.00
2019-04-01T07:48:26.390Z,60.00
2019-04-01T07:51:30.792Z,60.00
2019-04-01T07:54:35.219Z,61.00
2019-04-01T07:57:39.625Z,61.00
2019-04-01T08:00:32.973Z,61.00
2019-04-01T08:03:37.407Z,61.00
2019-04-01T08:06:41.810Z,60.00
2019-04-01T08:09:46.241Z,60.00
2019-04-01T08:12:50.651Z,61.00
2019-04-01T08:15:55.076Z,61.00
2019-04-01T08:18:59.510Z,61.00
2019-04-01T08:22:03.919Z,64.00
2019-04-01T08:25:08.349Z,60.00
2019-04-01T08:28:12.762Z,60.00
2019-04-01T08:31:06.118Z,60.00
2019-04-01T08:34:10.557Z,60.00
2019-04-01T08:37:14.973Z,59.00
2019-04-01T08:40:19.403Z,61.00
2019-04-01T08:43:23.818Z,62.00
2019-04-01T08:46:28.253Z,60.00
2019-04-01T08:49:32.703Z,61.00
2019-04-01T08:52:37.112Z,59.00
2019-04-01T08:55:41.550Z,60.00
2019-04-01T08:58:45.967Z,61.00
2019-04-01T09:01:50.472Z,59.00
2019-04-01T09:04:54.843Z,60.00
2019-04-01T09:07:59.264Z,60.00
2019-04-01T09:10:52.634Z,62.00
2019-04-01T09:13:57.048Z,60.00
2019-04-01T09:17:01.492Z,61.00
2019-04-01T09:20:05.936Z,59.00
2019-04-01T09:23:10.359Z,60.00
2019-04-01T09:26:14.802Z,60.00
2019-04-01T09:29:19.226Z,60.00
2019-04-01T09:32:23.670Z,59.00
2019-04-01T09:35:28.114Z,61.00
2019-04-01T09:38:32.539Z,61.00
2019-04-01T09:41:36.984Z,58.00
2019-04-01T09:44:41.430Z,59.00
2019-04-01T09:47:45.853Z,59.00
2019-04-01T09:50:39.232Z,60.00
2019-04-01T09:53:43.653Z,60.00
2019-04-01T09:56:48.102Z,59.00
2019-04-01T09:59:52.527Z,58.00
2019-04-01T10:02:56.975Z,60.00
2019-04-01T10:06:01.424Z,60.00
2019-04-01T10:09:05.850Z,60.00
2019-04-01T10:12:10.302Z,59.00
2019-04-01T10:15:14.729Z,61.00
2019-04-01T10:18:19.180Z,60.00
2019-04-01T10:21:12.559Z,62.00
2019-04-01T10:24:16.986Z,60.00
2019-04-01T10:27:21.440Z,66.00
2019-04-01T10:30:25.874Z,62.00
2019-04-01T10:33:30.326Z,61.00
2019-04-01T10:36:34.775Z,62.00
2019-04-01T10:39:39.218Z,64.00
2019-04-01T10:42:43.656Z,60.00
2019-04-01T10:45:48.087Z,60.00
2019-04-01T10:48:52.621Z,63.00
2019-04-01T10:51:57.033Z,61.00
2019-04-01T10:55:01.419Z,60.00
2019-04-01T10:58:05.878Z,63.00
2019-04-01T11:00:59.252Z,63.00
2019-04-01T11:04:03.682Z,61.00
2019-04-01T11:07:08.334Z,64.00
2019-04-01T11:10:12.558Z,63.00
2019-04-01T11:13:17.015Z,59.00
2019-04-01T11:16:21.469Z,62.00
2019-04-01T11:19:25.898Z,60.00
2019-04-01T11:22:31.790Z,60.00
2019-04-01T11:25:34.790Z,61.00
2019-04-01T11:28:39.266Z,62.00
2019-04-01T11:31:43.690Z,65.00
2019-04-01T11:34:48.164Z,62.00
2019-04-01T11:37:52.656Z,60.00
2019-04-01T11:40:45.932Z,61.00
2019-04-01T11:43:50.428Z,60.00
2019-04-01T11:46:54.923Z,61.00
2019-04-01T11:49:59.307Z,62.00
2019-04-01T11:53:03.709Z,62.00
2019-04-01T11:56:08.139Z,59.00
2019-04-01T11:59:12.587Z,61.00
2019-04-01T12:02:17.044Z,60.00
2019-04-01T12:05:21.888Z,61.00
2019-04-01T12:08:25.923Z,63.00
2019-04-01T12:11:30.355Z,61.00
2019-04-01T12:14:34.808Z,60.00
2019-04-01T12:17:41.526Z,66.00
2019-04-01T12:20:32.622Z,61.00
2019-04-01T12:23:37.072Z,63.00
2019-04-01T12:26:41.497Z,61.00
2019-04-01T12:29:48.224Z,60.00
2019-04-01T12:32:50.398Z,60.00
2019-04-01T12:35:54.832Z,61.00
2019-04-01T12:38:59.280Z,63.00
2019-04-01T12:42:03.712Z,64.00
2019-04-01T12:45:08.173Z,60.00
2019-04-01T12:48:12.609Z,61.00
2019-04-01T12:51:05.964Z,60.00
2019-04-01T12:54:10.415Z,63.00
2019-04-01T12:57:18.464Z,60.00
2019-04-01T13:00:19.298Z,60.00
2019-04-01T13:03:23.749Z,59.00
2019-04-01T13:06:28.180Z,63.00
2019-04-01T13:09:32.651Z,61.00
2019-04-01T13:12:37.070Z,63.00
2019-04-01T13:15:41.519Z,64.00
2019-04-01T13:18:47.205Z,62.00
2019-04-01T13:21:50.412Z,60.00
2019-04-01T13:24:54.922Z,63.00
2019-04-01T13:27:59.382Z,61.00
2019-04-01T13:30:52.805Z,64.00
2019-04-01T13:33:57.255Z,61.00
2019-04-01T13:37:01.751Z,61.00
2019-04-01T13:40:06.205Z,64.00
2019-04-01T13:43:11.461Z,63.00
2019-04-01T13:46:15.083Z,62.00
2019-04-01T13:49:19.531Z,64.00
2019-04-01T13:52:23.960Z,66.00
2019-04-01T13:55:28.413Z,66.00
2019-04-01T13:58:32.844Z,67.00
2019-04-01T14:01:37.298Z,66.00
2019-04-01T14:04:41.757Z,66.00
2019-04-01T14:07:46.184Z,66.00
2019-04-01T14:10:40.612Z,65.00
2019-04-01T14:13:43.995Z,66.00
2019-04-01T14:16:48.658Z,66.00
2019-04-01T14:19:53.117Z,66.00
2019-04-01T14:22:57.692Z,67.00
2019-04-01T14:26:02.375Z,66.00
2019-04-01T14:29:07.645Z,65.00
2019-04-01T14:32:11.442Z,66.00
2019-04-01T14:35:15.921Z,63.00
2019-04-01T14:38:20.410Z,67.00
2019-04-01T14:41:13.842Z,66.00
2019-04-01T14:44:18.264Z,66.00
2019-04-01T14:47:22.798Z,65.00
2019-04-01T14:50:27.166Z,66.00
2019-04-01T14:53:31.609Z,66.00
2019-04-01T14:56:36.073Z,65.00
2019-04-01T14:59:40.511Z,65.00
2019-04-01T15:02:44.961Z,66.00
2019-04-01T15:05:49.429Z,65.00
2019-04-01T15:08:53.841Z,67.00
2019-04-01T15:11:58.292Z,64.00
2019-04-01T15:15:04.114Z,65.00
2019-04-01T15:18:10.008Z,62.00
2019-04-01T15:21:01.554Z,62.00
2019-04-01T15:24:05.977Z,60.00
2019-04-01T15:27:10.419Z,61.00
2019-04-01T15:30:14.850Z,64.00
2019-04-01T15:33:19.283Z,61.00
2019-04-01T15:36:23.729Z,62.00
2019-04-01T15:39:28.153Z,62.00
2019-04-01T15:42:32.597Z,60.00
2019-04-01T15:45:37.009Z,60.00
2019-04-01T15:48:41.464Z,61.00
2019-04-01T15:51:45.879Z,63.00
2019-04-01T15:54:50.309Z,61.00
2019-04-01T15:57:54.729Z,63.00
2019-04-01T16:00:48.073Z,61.00
2019-04-01T16:03:52.518Z,60.00
2019-04-01T16:06:57.966Z,61.00
2019-04-01T16:10:02.373Z,61.00
2019-04-01T16:13:06.819Z,64.00
2019-04-01T16:16:14.279Z,61.00
2019-04-01T16:19:15.657Z,63.00
2019-04-01T16:22:20.083Z,62.00
2019-04-01T16:25:25.504Z,61.00
2019-04-01T16:28:29.942Z,60.00
2019-04-01T16:31:34.355Z,60.00
2019-04-01T16:34:41.969Z,63.00
2019-04-01T16:37:43.220Z,60.00
2019-04-01T16:40:36.547Z,60.00
2019-04-01T16:43:40.978Z,58.00
2019-04-01T16:46:45.384Z,59.00
2019-04-01T16:49:49.806Z,61.00
2019-04-01T16:52:54.241Z,59.00
2019-04-01T16:55:58.642Z,60.00
2019-04-01T16:59:03.068Z,63.00
2019-04-01T17:02:17.770Z,61.00
2019-04-01T17:05:11.885Z,59.00
2019-04-01T17:08:16.315Z,61.00
2019-04-01T17:11:09.633Z,63.00
2019-04-01T17:14:14.056Z,60.00
2019-04-01T17:17:18.450Z,62.00
2019-04-01T17:20:22.870Z,59.00
2019-04-01T17:23:28.264Z,60.00
2019-04-01T17:26:31.675Z,61.00
2019-04-01T17:29:36.130Z,60.00
2019-04-01T17:32:40.532Z,59.00
2019-04-01T17:35:44.947Z,61.00
2019-04-01T17:38:49.352Z,61.00
2019-04-01T17:41:53.746Z,60.00
2019-04-01T17:44:58.162Z,59.00
2019-04-01T17:48:04.324Z,59.00
2019-04-01T17:50:55.893Z,61.00
2019-04-01T17:54:01.116Z,61.00
2019-04-01T17:57:04.765Z,63.00
2019-04-01T18:00:09.176Z,64.00
2019-04-01T18:03:13.561Z,62.00
2019-04-01T18:06:18.075Z,61.00
2019-04-01T18:09:22.526Z,60.00
2019-04-01T18:12:26.922Z,65.00
2019-04-01T18:15:31.378Z,60.00
2019-04-01T18:18:35.762Z,61.00
2019-04-01T18:21:40.173Z,64.00
2019-04-01T18:24:44.677Z,60.00
2019-04-01T18:27:49.103Z,64.00
2019-04-01T18:30:42.473Z,65.00
2019-04-01T18:33:55.992Z,63.00
2019-04-01T18:36:52.198Z,62.00
2019-04-01T18:39:57.225Z,63.00
2019-04-01T18:43:00.440Z,60.00
2019-04-01T18:46:04.609Z,60.00
2019-04-01T18:49:09.126Z,64.00
2019-04-01T18:52:13.527Z,62.00
2019-04-01T18:55:17.946Z,66.00
2019-04-01T18:58:22.322Z,60.00
2019-04-01T19:01:16.105Z,63.00
2019-04-01T19:04:20.065Z,62.00
2019-04-01T19:07:24.479Z,63.00
2019-04-01T19:10:28.888Z,64.00
2019-04-01T19:13:33.267Z,61.00
2019-04-01T19:16:37.670Z,61.00
2019-04-01T19:19:42.719Z,60.00
2019-04-01T19:22:46.464Z,61.00
2019-04-01T19:25:50.866Z,60.00
2019-04-01T19:28:58.055Z,60.00
2019-04-01T19:31:59.669Z,60.00
2019-04-01T19:35:04.953Z,59.00
2019-04-01T19:38:08.444Z,60.00
2019-04-01T19:41:01.781Z,60.00
2019-04-01T19:44:06.170Z,59.00
2019-04-01T19:47:10.574Z,59.00
2019-04-01T19:50:18.083Z,59.00
2019-04-01T19:53:19.360Z,59.00
2019-04-01T19:56:23.769Z,59.00
2019-04-01T19:59:28.152Z,59.00
2019-04-01T20:02:34.154Z,59.00
2019-04-01T20:05:36.968Z,59.00
2019-04-01T20:08:41.355Z,59.00
2019-04-01T20:11:45.760Z,59.00
2019-04-01T20:14:50.143Z,59.00
2019-04-01T20:17:54.553Z,59.00
2019-04-01T20:20:47.894Z,59.00
2019-04-01T20:23:54.827Z,59.00
2019-04-01T20:26:56.680Z,60.00
2019-04-01T20:30:01.065Z,60.00
2019-04-01T20:33:16.864Z,59.00
2019-04-01T20:36:09.858Z,59.00
2019-04-01T20:39:14.257Z,59.00
2019-04-01T20:42:18.667Z,59.00
2019-04-01T20:45:23.042Z,59.00
2019-04-01T20:48:27.454Z,60.00
2019-04-01T20:51:31.855Z,64.00
2019-04-01T20:54:36.243Z,59.00
2019-04-01T20:57:40.649Z,59.00
2019-04-01T21:00:33.961Z,59.00
2019-04-01T21:03:38.363Z,59.00
2019-04-01T21:06:42.772Z,59.00
2019-04-01T21:09:47.153Z,59.00
2019-04-01T21:12:51.562Z,59.00
2019-04-01T21:15:55.943Z,59.00
2019-04-01T21:19:00.345Z,59.00
2019-04-01T21:22:04.752Z,59.00
2019-04-01T21:25:09.163Z,59.00
2019-04-01T21:28:13.571Z,59.00
2019-04-01T21:31:07.893Z,59.00
2019-04-01T21:34:12.299Z,59.00
2019-04-01T21:37:16.691Z,59.00
2019-04-01T21:40:21.101Z,59.00
2019-04-01T21:43:25.493Z,59.00
2019-04-01T21:46:29.875Z,59.00
2019-04-01T21:49:36.883Z,59.00
2019-04-01T21:52:39.697Z,59.00
2019-04-01T21:55:44.078Z,59.00
2019-04-01T21:58:49.168Z,59.00
2019-04-01T22:01:52.859Z,59.00
2019-04-01T22:04:57.259Z,59.00
2019-04-01T22:08:01.666Z,59.00
2019-04-01T22:10:54.969Z,59.00
2019-04-01T22:13:59.374Z,59.00
2019-04-01T22:17:03.750Z,59.00
2019-04-01T22:20:09.394Z,59.00
2019-04-01T22:23:13.569Z,59.00
2019-04-01T22:26:17.947Z,59.00
2019-04-01T22:29:22.348Z,59.00
2019-04-01T22:32:26.743Z,59.00
2019-04-01T22:35:38.675Z,59.00
2019-04-01T22:38:35.631Z,59.00
2019-04-01T22:41:41.691Z,59.00
2019-04-01T22:44:45.336Z,59.00
2019-04-01T22:47:49.717Z,59.00
2019-04-01T22:50:43.049Z,59.00
2019-04-01T22:53:47.610Z,59.00
2019-04-01T22:56:51.990Z,59.00
2019-04-01T22:59:56.389Z,59.00
2019-04-01T23:03:00.772Z,59.00
2019-04-01T23:06:05.229Z,59.00
2019-04-01T23:09:09.572Z,59.00
2019-04-01T23:12:13.953Z,60.00
2019-04-01T23:15:18.357Z,60.00
2019-04-01T23:18:22.740Z,60.00
2019-04-01T23:21:16.076Z,60.00
2019-04-01T23:24:20.490Z,60.00
2019-04-01T23:27:24.873Z,60.00
2019-04-01T23:30:29.273Z,60.00
2019-04-01T23:33:33.660Z,60.00
2019-04-01T23:36:38.070Z,60.00
2019-04-01T23:39:42.473Z,60.00
2019-04-01T23:42:46.859Z,60.00
2019-04-01T23:45:51.262Z,60.00
2019-04-01T23:48:55.647Z,60.00
2019-04-01T23:52:00.054Z,60.00
2019-04-01T23:55:04.460Z,60.00
2019-04-01T23:58:08.843Z,60.00
